Ride Results

Eden Creek 2 (17-05-2009)
Ride distance: 81.0 km

Outcomes - Eden Creek 2 (17-05-2009)
Division No. of Entries Retired / DNE Completed Withdrawn Ineligible V/O Percentage Completed
HW 9 - 8 - - 1 88.89%
MW 12 - 11 1 - - 91.67%
LW 5 - 4 - - 1 80.00%
JN 5 - 4 - - 1 80.00%
Totals 31 - 27 1 - 3 87.10%
Results - Eden Creek 2 (17-05-2009)
No. Rider Horse Place Time Leg Speeds Total
Km/Hr
H/R bpm
Heavyweight
13 Davin Coughran Cedar Springs The Full Monty 1 (BC) 3:44:00 21.9, 21.7 21.86 35, 42, 41 (Avg:41)
7 Dan Winkel Tonique 2 5:01:00 17.0, 15.4 16.27 32, 42, 59 (Avg:50)
22 Tad Cossins Jaytee Silhouette 3 5:16:00 17.5, 13.6 15.49 35, 39, 38 (Avg:38)
20 Tim Weismann Hirstglen Zanadu 4 5:26:00 12.7, 18.8 15.02 32, 44, 43 (Avg:43)
5 Ray Adams Erin Park GBH 5 6:06:00 12.9, 13.9 13.38 30, 42, 44 (Avg:43)
31 Matthew Gadsby Dardanga Fingal 6 6:09:00 13.0, 13.4 13.27 37, 40, 46 (Avg:43)
29 Paul Lengronne Country Gentleman 6 6:09:00 13.0, 13.4 13.27 41, 45, 48 (Avg:46)
15 Allyson Taylor Everon Park Shebell 8 6:21:00 12.9, 12.7 12.85 34, 41, 48 (Avg:44)
24 Michael Combe Milgarra Sinzano Back P/R 0:00:00 - - 37
Middleweight
12 David Urquhart Bendy Creek Barbarella 1 (BC) 3:44:00 21.9, 21.7 21.86 35, 42, 39 (Avg:40)
6 Emma Masters Die Kinder Lunar Eclipse 2 4:37:00 17.2, 18.2 17.68 36, 46, 49 (Avg:47)
4 Peter Kelly Kerewong Raphael 3 4:49:00 17.2, 16.6 16.94 36, 47, 47 (Avg:47)
10 Debra McQueen Armani Thunder 3 4:49:00 17.2, 16.6 16.94 36, 43, 46 (Avg:44)
19 Donna Brooker Hirstglen Fargo 5 5:03:00 15.5, 16.8 16.16 33, 41, 44 (Avg:42)
1 Tony Standfield Stanpark Rupert 6 5:26:00 12.7, 18.8 15.02 36, 42, 56 (Avg:49)
26 Bill Ward Ubejane 7 6:02:00 13.2, 13.8 13.52 38, 41, 45 (Avg:43)
23 Narelle Childs Halo Kazaam 8 6:06:00 13.0, 13.8 13.38 35, 38, 56 (Avg:47)
14 Alex Batschowanow Saroco Samba 9 6:09:00 12.9, 13.6 13.27 38, 42, 48 (Avg:45)
16 Damien Keys Elfar Karnella 10 6:20:00 12.3, 13.5 12.88 36, 39, 44 (Avg:41)
21 Leanne McLaughlin Ramalea Pretty Girl 11 6:33:00 12.8, 11.9 12.46 29, 36, 44 (Avg:40)
30 Rosemary Skipper Sasam Withdrawn L1 0:00:00 - - 36, 39 (Avg:39)
Lightweight
11 Judy Battams Nangamba Alisaar 1 (BC) 4:10:00 21.9, 17.4 19.58 34, 42, 46 (Avg:44)
8 Karen Winkel Xanadu Barabbous 2 5:01:00 17.0, 15.4 16.27 36, 41, 46 (Avg:43)
32 Tamara Prentice Tristram Blaze of Glory 3 6:02:00 13.2, 13.8 13.52 31, 42, 56 (Avg:49)
25 Caroline Windle Satin Lace 4 6:06:00 12.9, 13.9 13.38 36, 44, 50 (Avg:47)
27 Pip Lillyman Meadowbrook Rhapsody Lame L1 0:00:00 12.4 - 31, 37 (Avg:37)
Junior
9 Hannah Houlden Googabilla Lodge Starlight 1 4:21:00 19.9, 17.5 18.76 34, 44, 42 (Avg:43)
3 Billie Standfield Stanpark Meg 2 5:24:00 13.9, 16.7 15.11 34, 44, 45 (Avg:44)
2 Aime Newton Tristrams Class Act 3 6:02:00 13.2, 13.8 13.52 34, 47, 47 (Avg:47)
17 Dylan Keys Elfar Sword O'Fire 4 6:20:00 12.3, 13.5 12.88 31, 34, 37 (Avg:35)
18 Jackson Brown Ramalea Mary Lame L2 0:00:00 12.8, 11.9 - 38, 42, 48 (Avg:45)